Latest Weather Observations for Sheffield

IDT60801

Issued at 8:31 am EDT Sunday 4 December 2016 (issued every 30 minutes, with the page automatically refreshed every 10 minutes)

About weather observations | Map of weather stations | Latest weather observations for TAS | Other Formats
Station Details ID: 091291 Name: SHEFFIELD SCHOOL FARM Lat: -41.39 Lon: 146.32 Height: 294.2 m
Data from the previous 72 hours. | See also: Recent months at Sheffield
Date/Time
EDT
Temp
°C
App
Temp
°C
Dew
Point
°C
Rel
Hum
%
Delta-T
°C
Wind Press
QNH
hPa
Press
MSL
hPa
Rain since
9am
mm
Dir  Spd
km/h
Gust
km/h
Spd
kts
Gust
kts
04/08:30am 11.1 9.7 9.0 87 1.1 ESE 6 9 3 5 1014.3 1014.0 0.0
04/08:00am 10.6 9.7 9.2 91 0.7 SE 4 6 2 3 1014.1 1013.8 0.0
04/07:30am 8.5 7.0 7.0 90 0.7 ESE 4 6 2 3 1014.0 1013.7 0.0
04/07:00am 7.5 5.8 6.0 90 0.7 ESE 4 6 2 3 1014.2 1013.9 0.0
04/06:30am 6.7 4.8 5.0 89 0.8 S 4 6 2 3 1014.3 1014.0 0.0
04/06:00am 6.8 5.8 5.4 91 0.6 CALM 0 0 0 0 1014.3 1014.0 0.0
04/05:30am 6.0 4.8 4.5 90 0.7 CALM 0 0 0 0 1013.8 1013.5 0.0
04/05:00am 6.0 4.0 4.6 91 0.6 S 4 6 2 3 1013.6 1013.3 0.0
04/04:30am 6.0 4.5 5.0 93 0.4 SSW 2 4 1 2 1013.4 1013.1 0.0
04/04:00am 5.8 3.2 4.3 90 0.7 S 7 9 4 5 1013.4 1013.1 0.0
04/03:30am 6.2 3.9 4.7 90 0.7 S 6 6 3 3 1013.8 1013.5 0.0
04/03:00am 6.4 4.9 5.2 92 0.5 S 2 6 1 3 1013.8 1013.5 0.0
04/02:30am 6.5 4.7 5.5 93 0.5 SSE 4 4 2 2 1013.8 1013.5 0.0
04/02:00am 7.2 5.5 6.0 92 0.6 SSE 4 6 2 3 1014.1 1013.8 0.0
04/01:30am 7.5 6.5 5.8 89 0.8 CALM 0 0 0 0 1014.5 1014.2 0.0
04/01:00am 8.0 7.2 6.3 89 0.8 CALM 0 0 0 0 1014.6 1014.3 0.0
04/12:30am 7.9 6.9 5.5 85 1.1 CALM 0 4 0 2 1014.7 1014.4 0.0
04/12:00am 9.6 7.7 5.0 73 2.1 W 4 4 2 2 1014.8 1014.5 0.0
 
Date/Time
EDT
Temp
°C
App
Temp
°C
Dew
Point
°C
Rel
Hum
%
Delta-T
°C
Wind Press
QNH
hPa
Press
MSL
hPa
Rain since
9am
mm
Dir  Spd
km/h
Gust
km/h
Spd
kts
Gust
kts
03/11:30pm 9.3 8.0 6.0 80 1.5 WNW 2 4 1 2 1014.9 1014.6 0.0
03/11:00pm 8.9 7.8 6.7 86 1.0 SE 2 4 1 2 1014.8 1014.5 0.0
03/10:30pm 9.6 8.1 6.7 82 1.4 SSW 4 6 2 3 1014.7 1014.4 0.0
03/10:00pm 10.8 10.0 6.7 76 2.0 CALM 0 0 0 0 1014.8 1014.5 0.0
03/09:30pm 10.8 10.0 6.7 76 2.0 CALM 0 0 0 0 1014.5 1014.2 0.0
03/09:00pm 10.9 9.8 6.8 76 2.0 E 2 4 1 2 1014.4 1014.1 0.0
03/08:30pm 11.5 9.1 6.8 73 2.3 N 9 15 5 8 1014.1 1013.8 0.0
03/08:00pm 12.4 8.5 6.9 69 2.7 NNW 17 24 9 13 1013.8 1013.5 0.0
03/07:30pm 13.5 9.9 6.8 64 3.3 NNW 15 20 8 11 1013.6 1013.3 0.0
03/07:00pm 14.2 10.0 7.3 63 3.4 N 19 26 10 14 1013.6 1013.3 0.0
03/06:30pm 14.3 9.4 7.1 62 3.6 N 22 28 12 15 1013.3 1013.0 0.0
03/06:00pm 15.0 10.8 8.3 64 3.4 N 20 32 11 17 1013.1 1012.7 0.0
03/05:30pm 15.9 11.2 7.9 59 4.1 NNW 22 32 12 17 1012.9 1012.5 0.0
03/05:00pm 16.2 11.0 7.4 56 4.5 NNW 24 35 13 19 1013.0 1012.6 0.0
03/04:30pm 16.3 11.5 7.5 56 4.5 NNW 22 32 12 17 1013.1 1012.7 0.0
03/04:00pm 15.7 10.5 7.2 57 4.3 NNW 24 30 13 16 1013.2 1012.8 0.0
03/03:30pm 15.9 10.9 7.9 59 4.1 NNW 24 32 13 17 1013.3 1013.0 0.0
03/03:00pm 18.4 14.2 5.6 43 6.3 NW 17 24 9 13 1013.6 1013.3 0.0
03/02:30pm 16.9 13.0 5.2 46 5.7 WNW 15 24 8 13 1013.8 1013.5 0.0
03/02:00pm 16.1 12.8 6.3 52 4.8 W 13 19 7 10 1013.9 1013.6 0.0
03/01:30pm 15.4 11.8 4.8 49 5.1 WNW 13 20 7 11 1014.0 1013.7 0.0
03/01:00pm 15.5 10.6 5.1 50 5.0 NW 20 28 11 15 1014.1 1013.8 0.0
03/12:30pm 15.2 10.4 4.6 49 5.0 WNW 19 24 10 13 1014.2 1013.9 0.0
03/12:00pm 16.3 11.5 4.7 46 5.6 WNW 19 32 10 17 1014.4 1014.1 0.0
03/11:30am 16.2 11.5 2.9 41 6.1 NW 17 26 9 14 1014.3 1014.0 0.0
03/11:00am 15.6 11.3 3.1 43 5.8 W 15 28 8 15 1014.2 1013.9 0.0
03/10:30am 14.7 10.0 3.2 46 5.3 W 17 32 9 17 1014.2 1013.9 0.0
03/10:00am 14.1 9.1 3.8 50 4.8 W 19 28 10 15 1014.3 1014.0 0.0
03/09:30am 12.6 8.3 5.1 60 3.5 WNW 17 26 9 14 1014.4 1014.1 0.0
03/09:00am 12.4 8.9 5.6 63 3.2 WNW 13 24 7 13 1014.1 1013.8 0.0
03/08:30am 11.8 7.8 4.8 62 3.2 WNW 15 22 8 12 1014.0 1013.7 0.0
03/08:00am 10.6 7.6 6.2 74 2.1 NW 11 17 6 9 1013.9 1013.6 0.0
03/07:30am 8.6 6.3 5.7 82 1.3 NW 7 9 4 5 1013.6 1013.3 0.0
03/07:00am 6.4 4.8 4.4 87 0.9 N 2 6 1 3 1013.8 1013.5 0.0
03/06:30am 5.9 3.4 3.9 87 0.9 NNW 6 7 3 4 1013.5 1013.2 0.0
03/06:00am 5.6 3.0 3.4 86 0.9 WNW 6 6 3 3 1013.4 1013.1 0.0
03/05:30am 5.8 3.3 3.5 85 1.0 NW 6 9 3 5 1013.0 1012.6 0.0
03/05:00am 5.7 3.2 3.7 87 0.9 NNW 6 7 3 4 1013.0 1012.6 0.0
03/04:30am 6.4 3.4 3.9 84 1.1 NW 9 13 5 7 1013.0 1012.6 0.0
03/04:00am 6.3 2.9 3.8 84 1.1 NW 11 15 6 8 1012.9 1012.5 0.0
03/03:30am 6.2 2.8 4.0 86 1.0 NW 11 15 6 8 1013.1 1012.7 0.0
03/03:00am 6.1 3.0 3.8 85 1.0 NNW 9 13 5 7 1013.0 1012.6 0.0
03/02:30am 6.6 3.2 4.1 84 1.1 NNW 11 15 6 8 1013.0 1012.6 0.0
03/02:00am 6.4 3.7 3.9 84 1.1 NNW 7 11 4 6 1013.1 1012.7 0.0
03/01:30am 7.1 4.1 4.1 81 1.3 NNW 9 17 5 9 1013.0 1012.6 0.0
03/01:00am 7.4 3.6 4.0 79 1.5 NW 13 15 7 8 1013.1 1012.7 0.0
03/12:30am 7.8 4.4 4.2 78 1.6 NW 11 13 6 7 1013.2 1012.8 0.0
03/12:00am 7.5 4.6 4.6 82 1.3 NW 9 11 5 6 1013.4 1013.1 0.0
 
Date/Time
EDT
Temp
°C
App
Temp
°C
Dew
Point
°C
Rel
Hum
%
Delta-T
°C
Wind Press
QNH
hPa
Press
MSL
hPa
Rain since
9am
mm
Dir  Spd
km/h
Gust
km/h
Spd
kts
Gust
kts
02/11:30pm 7.9 4.2 4.5 79 1.5 WNW 13 19 7 10 1013.3 1013.0 0.0
02/11:00pm 8.7 5.0 4.5 75 1.9 NW 13 20 7 11 1013.1 1012.7 0.0
02/10:30pm 8.8 6.1 3.8 71 2.2 NW 7 9 4 5 1013.0 1012.6 0.0
02/10:00pm 9.6 4.5 2.9 63 2.9 W 19 26 10 14 1012.9 1012.5 0.0
02/09:30pm 10.0 6.4 3.1 62 3.0 W 11 17 6 9 1012.5 1012.1 0.0
02/09:00pm 9.7 5.3 2.8 62 3.0 SW 15 20 8 11 1012.2 1011.8 0.0
02/08:30pm 10.5 5.2 3.1 60 3.3 SW 20 28 11 15 1011.6 1011.3 0.0
02/08:00pm 11.7 7.6 2.2 52 4.2 W 13 19 7 10 1010.8 1010.5 0.0
02/07:30pm 12.4 7.3 0.8 45 4.9 WSW 17 24 9 13 1010.5 1010.2 0.0
02/07:00pm 13.7 8.2 0.7 41 5.6 WSW 19 32 10 17 1010.1 1009.7 0.0
02/06:30pm 14.3 8.9 2.2 44 5.4 WSW 20 33 11 18 1009.7 1009.3 0.0
02/06:00pm 14.8 7.0 1.7 41 5.8 W 32 46 17 25 1009.4 1009.0 0.0
02/05:30pm 15.9 8.5 1.6 38 6.4 WSW 30 43 16 23 1008.8 1008.4 0.0
02/05:00pm 16.1 8.5 0.3 34 6.9 WSW 30 48 16 26 1008.5 1008.1 0.0
02/04:59pm 16.3 8.6 0.0 33 7.1 WSW 30 48 16 26 1008.5 1008.1 0.0
02/04:30pm 16.6 9.5 1.1 35 6.9 WSW 28 41 15 22 1008.2 1007.9 0.0
02/04:00pm 17.2 11.2 3.5 40 6.5 WSW 24 37 13 20 1007.9 1007.6 0.0
02/03:30pm 17.3 11.0 1.3 34 7.2 WSW 24 43 13 23 1007.8 1007.5 0.0
02/03:00pm 17.5 10.4 1.5 34 7.3 WSW 28 41 15 22 1007.5 1007.2 0.0
02/02:30pm 17.6 11.7 2.0 35 7.1 W 22 35 12 19 1007.3 1006.9 0.0
02/02:00pm 17.1 10.8 1.5 35 7.1 W 24 41 13 22 1007.1 1006.7 0.0
02/01:30pm 17.7 11.6 2.8 37 6.9 W 24 41 13 22 1006.8 1006.4 0.0
02/01:00pm 17.1 10.9 2.3 37 6.8 WNW 24 37 13 20 1006.6 1006.2 0.0
02/12:30pm 16.5 10.3 4.2 44 5.8 WSW 26 43 14 23 1006.6 1006.2 0.0
02/12:00pm 16.5 10.2 3.6 42 6.1 W 26 39 14 21 1006.5 1006.1 0.0
02/11:43am 16.4 9.6 3.1 41 6.2 W 28 46 15 25 1006.4 1006.0 0.0
02/11:30am 15.3 7.5 3.1 44 5.6 WSW 33 46 18 25 1006.5 1006.1 0.0
02/11:00am 15.4 8.6 5.0 50 5.0 WSW 30 43 16 23 1006.5 1006.1 0.0
02/10:30am 14.2 7.2 6.8 61 3.6 WSW 33 50 18 27 1006.3 1005.9 0.0
02/10:00am 15.3 11.3 9.0 66 3.3 W 20 32 11 17 1006.0 1005.6 0.0
02/09:30am 14.7 10.7 9.1 69 2.9 WNW 20 32 11 17 1006.0 1005.6 0.0
02/09:00am 12.9 8.0 8.6 75 2.2 WNW 24 37 13 20 1006.0 1005.6 0.0
02/08:30am 12.4 6.9 7.7 73 2.3 NW 26 35 14 19 1005.8 1005.4 0.0
02/08:00am 12.1 7.8 7.8 75 2.1 NW 20 26 11 14 1005.5 1005.1 0.0
02/07:30am 11.3 7.0 7.2 76 2.0 NW 19 28 10 15 1005.1 1004.7 0.0
02/07:00am 10.5 6.9 6.6 77 1.9 NW 15 20 8 11 1004.9 1004.5 0.0
02/06:30am 9.1 6.4 5.8 80 1.5 NNW 9 11 5 6 1004.6 1004.3 0.0
02/06:00am 9.1 6.0 5.7 79 1.6 NW 11 15 6 8 1004.2 1003.8 0.0
02/05:30am 8.7 4.9 5.6 81 1.4 WNW 15 22 8 12 1004.0 1003.6 0.0
02/05:00am 8.3 5.6 5.8 84 1.2 N 9 13 5 7 1003.7 1003.3 0.0
02/04:30am 8.0 5.7 5.8 86 1.0 NNW 7 9 4 5 1003.5 1003.1 0.0
02/04:00am 8.9 6.2 5.5 79 1.6 WNW 9 15 5 8 1003.4 1003.0 0.0
02/03:30am 9.7 6.4 6.4 80 1.6 WNW 13 19 7 10 1003.4 1003.0 0.0
02/03:00am 8.7 5.7 6.0 83 1.3 NW 11 17 6 9 1003.2 1002.8 0.0
02/02:30am 8.7 6.3 5.4 80 1.5 NW 7 13 4 7 1002.8 1002.4 0.0
02/02:00am 10.1 8.2 6.8 80 1.6 WNW 6 7 3 4 1003.0 1002.6 0.0
02/01:30am 10.3 8.5 7.9 85 1.2 W 7 11 4 6 1003.2 1002.8 0.0
02/01:00am 10.3 8.5 8.1 86 1.1 NW 7 9 4 5 1003.6 1003.2 0.0
02/12:30am 11.1 9.6 9.2 88 1.0 NW 7 9 4 5 1003.7 1003.3 0.0
02/12:00am 11.2 10.1 10.6 96 0.3 WNW 7 11 4 6 1003.9 1003.5 0.0
 
Date/Time
EDT
Temp
°C
App
Temp
°C
Dew
Point
°C
Rel
Hum
%
Delta-T
°C
Wind Press
QNH
hPa
Press
MSL
hPa
Rain since
9am
mm
Dir  Spd
km/h
Gust
km/h
Spd
kts
Gust
kts
01/11:30pm 11.7 10.7 10.9 95 0.4 NNW 7 9 4 5 1004.1 1003.7 0.0
01/11:00pm 12.6 11.8 11.8 95 0.4 N 7 11 4 6 1004.1 1003.7 0.0
01/10:30pm 12.9 12.2 12.0 94 0.5 NNW 7 9 4 5 1004.3 1003.9 0.0
01/10:00pm 12.9 12.3 11.6 92 0.7 NNW 6 7 3 4 1004.4 1004.0 0.0
01/09:30pm 13.6 12.6 12.2 91 0.8 N 9 11 5 6 1004.3 1003.9 0.0
01/09:00pm 14.4 13.4 12.4 88 1.1 NNW 9 11 5 6 1004.3 1003.9 0.0
01/08:30pm 14.9 13.8 13.1 89 1.0 NNW 11 15 6 8 1004.4 1004.0 0.0
01/08:00pm 15.7 14.2 13.2 85 1.4 NNW 13 17 7 9 1004.6 1004.3 0.0
01/07:30pm 16.3 15.1 12.8 80 2.0 NNW 11 15 6 8 1004.1 1003.7 0.0
01/07:00pm 16.9 15.2 12.6 76 2.4 NNW 13 17 7 9 1004.1 1003.7 0.0
01/06:30pm 17.3 15.9 12.2 72 2.8 NNW 11 15 6 8 1003.9 1003.5 0.0
01/06:00pm 18.1 16.7 12.3 69 3.3 NNW 11 15 6 8 1003.9 1003.5 0.0
01/05:30pm 19.3 17.3 12.8 66 3.7 NNW 15 20 8 11 1004.1 1003.7 0.0
01/05:00pm 19.2 17.8 13.4 69 3.4 NNW 13 17 7 9 1004.3 1003.9 0.0
01/04:30pm 20.1 18.5 14.0 68 3.6 NNW 15 22 8 12 1004.5 1004.2 0.0
01/04:00pm 19.6 17.6 13.8 69 3.4 NNW 17 22 9 12 1004.7 1004.4 0.0
01/03:30pm 19.5 17.7 13.2 67 3.6 NNW 15 19 8 10 1005.0 1004.6 0.0
01/03:00pm 19.6 17.0 13.1 66 3.7 NNW 19 26 10 14 1005.4 1005.0 0.0
01/02:30pm 19.7 17.5 13.4 67 3.6 NW 17 22 9 12 1005.6 1005.2 0.0
01/02:00pm 19.6 17.5 13.5 68 3.5 NNW 17 28 9 15 1006.0 1005.6 0.0
01/01:30pm 19.5 17.2 14.1 71 3.2 NW 19 26 10 14 1006.1 1005.7 0.0
01/01:00pm 19.9 18.3 12.7 63 4.1 NNW 13 20 7 11 1006.4 1006.0 0.0
01/12:30pm 19.4 18.1 12.4 64 4.0 NW 11 17 6 9 1006.7 1006.3 0.0
01/12:00pm 19.1 18.6 12.6 66 3.7 NNE 7 15 4 8 1007.0 1006.6 0.0
01/11:30am 19.2 18.2 13.4 69 3.3 ENE 11 17 6 9 1007.4 1007.1 0.0
01/11:00am 18.3 16.8 13.0 71 3.0 E 13 19 7 10 1007.4 1007.1 0.0
01/10:30am 17.4 16.8 11.7 69 3.2 E 6 11 3 6 1007.6 1007.4 0.0
01/10:00am 17.5 16.2 12.6 73 2.8 E 11 19 6 10 1007.9 1007.8 0.0
01/09:30am 17.2 16.2 12.3 73 2.7 ESE 9 15 5 8 1008.1 1008.0 0.0
01/09:00am 16.1 15.3 12.8 81 1.9 SE 9 13 5 7 1008.2 1008.1 4.0

Other Formats:

Comma delimited format used in spreadsheet applications
http://www.bom.gov.au/fwo/IDT60801/IDT60801.94955.axf

JavaScript Object Notation format (JSON) in row-major order
http://www.bom.gov.au/fwo/IDT60801/IDT60801.94955.json